createdAt,value
2019-04-11T00:01:46.945Z,5.74
2019-04-11T00:06:47.769Z,5.55
2019-04-11T00:11:52.374Z,5.28
2019-04-11T00:16:56.048Z,5.77
2019-04-11T00:21:59.627Z,5.48
2019-04-11T00:27:03.201Z,5.34
2019-04-11T00:32:09.151Z,5.15
2019-04-11T00:37:12.729Z,5.13
2019-04-11T00:42:16.840Z,5.41
2019-04-11T00:47:20.734Z,5.14
2019-04-11T00:52:25.370Z,5.47
2019-04-11T00:57:28.937Z,5.70
2019-04-11T01:02:33.562Z,5.44
2019-04-11T01:07:37.271Z,5.06
2019-04-11T01:12:40.896Z,5.48
2019-04-11T01:17:45.445Z,5.38
2019-04-11T01:22:49.059Z,5.27
2019-04-11T01:27:52.734Z,5.43
2019-04-11T01:32:56.954Z,5.26
2019-04-11T01:38:00.978Z,5.22
2019-04-11T01:43:05.989Z,5.69
2019-04-11T01:48:15.311Z,5.38
2019-04-11T01:53:19.265Z,5.17
2019-04-11T01:58:22.991Z,4.88
2019-04-11T02:03:45.507Z,5.06
2019-04-11T02:08:49.489Z,5.01
2019-04-11T02:14:05.065Z,5.52
2019-04-11T02:18:59.490Z,5.24
2019-04-11T02:24:07.852Z,5.08
2019-04-11T02:29:11.580Z,5.03
2019-04-11T02:34:16.008Z,4.64
2019-04-11T02:39:20.501Z,4.64
2019-04-11T02:44:39.890Z,4.86
2019-04-11T02:49:31.158Z,4.57
2019-04-11T02:54:36.669Z,4.46
2019-04-11T02:59:40.979Z,4.37
2019-04-11T03:04:45.983Z,4.14
2019-04-11T03:09:51.037Z,3.98
2019-04-11T03:15:09.394Z,4.01
2019-04-11T03:20:13.012Z,4.01
2019-04-11T03:25:08.477Z,4.25
2019-04-11T03:30:16.131Z,4.25
2019-04-11T03:36:10.749Z,4.12
2019-04-11T03:40:43.428Z,4.44
2019-04-11T03:45:48.300Z,4.00
2019-04-11T03:50:34.807Z,4.04
2019-04-11T03:55:39.043Z,3.61
2019-04-11T04:00:44.499Z,3.59
2019-04-11T04:05:48.653Z,3.73
2019-04-11T04:11:14.715Z,3.60
2019-04-11T04:16:40.785Z,3.70
2019-04-11T04:21:42.887Z,3.87
2019-04-11T04:26:48.331Z,3.87
2019-04-11T04:31:53.251Z,3.64
2019-04-11T04:36:57.891Z,3.36
2019-04-11T04:42:09.213Z,3.74
2019-04-11T04:47:18.864Z,3.39
2019-04-11T04:52:14.333Z,3.43
2019-04-11T04:57:18.227Z,3.86
2019-04-11T05:02:23.946Z,3.39
2019-04-11T05:07:32.189Z,3.58
2019-04-11T05:12:34.449Z,3.50
2019-04-11T05:17:38.683Z,4.06
2019-04-11T05:22:43.632Z,4.00
2019-04-11T05:27:47.574Z,3.28
2019-04-11T05:32:51.127Z,4.16
2019-04-11T05:37:57.892Z,3.73
2019-04-11T05:43:01.874Z,4.15
2019-04-11T05:48:06.982Z,4.24
2019-04-11T05:53:10.606Z,4.54
2019-04-11T05:58:15.670Z,4.32
2019-04-11T06:03:21.803Z,4.21
2019-04-11T06:08:40.339Z,4.82
2019-04-11T06:13:48.889Z,5.65
2019-04-11T06:19:04.043Z,5.66
2019-04-11T06:24:28.032Z,5.29
2019-04-11T06:29:45.210Z,5.46
2019-04-11T06:35:02.459Z,6.84
2019-04-11T06:40:11.710Z,6.22
2019-04-11T06:45:33.184Z,6.36
2019-04-11T06:50:41.690Z,6.89
2019-04-11T06:55:46.910Z,6.41
2019-04-11T07:00:52.052Z,7.85
2019-04-11T07:05:57.216Z,8.66
2019-04-11T07:11:09.447Z,9.36
2019-04-11T07:16:13.432Z,8.80
2019-04-11T07:21:17.130Z,6.84
2019-04-11T07:26:23.001Z,8.22
2019-04-11T07:31:44.235Z,7.89
2019-04-11T07:36:53.503Z,8.53
2019-04-11T07:42:00.185Z,8.06
2019-04-11T07:47:17.764Z,7.13
2019-04-11T07:52:15.516Z,9.42
2019-04-11T07:57:38.955Z,8.79
2019-04-11T08:03:00.299Z,9.17
2019-04-11T08:08:13.258Z,8.04
2019-04-11T08:13:28.302Z,9.16
2019-04-11T08:18:36.902Z,8.78
2019-04-11T08:23:43.353Z,8.47
2019-04-11T08:28:59.238Z,9.89
2019-04-11T08:33:55.111Z,8.54
2019-04-11T08:38:59.150Z,7.95
2019-04-11T08:44:03.643Z,8.38
2019-04-11T08:49:15.279Z,8.85
2019-04-11T08:54:37.639Z,8.40
2019-04-11T08:59:46.238Z,8.93
2019-04-11T09:05:03.143Z,9.44
2019-04-11T09:10:04.598Z,9.20
2019-04-11T09:15:10.757Z,10.12
2019-04-11T09:20:32.203Z,8.43
2019-04-11T09:25:56.562Z,9.65
2019-04-11T09:31:01.762Z,9.18
2019-04-11T09:36:23.950Z,10.51
2019-04-11T09:41:32.294Z,8.91
2019-04-11T09:46:38.604Z,8.94
2019-04-11T09:51:47.689Z,8.54
2019-04-11T09:57:12.120Z,9.09
2019-04-11T10:02:33.461Z,8.24
2019-04-11T10:07:54.467Z,9.31
2019-04-11T10:13:06.798Z,9.31
2019-04-11T10:18:27.786Z,9.19
2019-04-11T10:23:37.236Z,9.94
2019-04-11T10:28:58.745Z,8.79
2019-04-11T10:34:21.561Z,9.62
2019-04-11T10:39:35.939Z,9.31
2019-04-11T10:44:42.221Z,9.36
2019-04-11T10:49:50.605Z,9.08
2019-04-11T10:55:05.172Z,8.43
2019-04-11T11:00:29.412Z,9.98
2019-04-11T11:05:43.226Z,10.00
2019-04-11T11:10:47.924Z,10.49
2019-04-11T11:15:56.167Z,9.99
2019-04-11T11:21:02.598Z,9.93
2019-04-11T11:26:22.569Z,10.43
2019-04-11T11:31:29.985Z,9.89
2019-04-11T11:36:48.053Z,10.06
2019-04-11T11:42:10.348Z,10.14
2019-04-11T11:47:36.481Z,10.50
2019-04-11T11:52:57.477Z,9.83
2019-04-11T11:58:19.949Z,9.99
2019-04-11T12:03:40.908Z,10.77
2019-04-11T12:09:02.780Z,10.23
2019-04-11T12:14:07.907Z,11.21
2019-04-11T12:19:18.089Z,9.39
2019-04-11T12:24:36.589Z,10.75
2019-04-11T12:29:52.316Z,10.59
2019-04-11T12:35:02.302Z,9.53
2019-04-11T12:40:09.746Z,10.39
2019-04-11T12:45:15.466Z,11.88
2019-04-11T12:50:20.874Z,10.63
2019-04-11T12:55:43.145Z,10.91
2019-04-11T13:00:57.839Z,9.94
2019-04-11T13:06:19.884Z,10.69
2019-04-11T13:11:25.578Z,10.27
2019-04-11T13:16:30.831Z,10.67
2019-04-11T13:21:38.963Z,10.95
2019-04-11T13:26:56.689Z,10.84
2019-04-11T13:32:05.067Z,9.93
2019-04-11T13:37:26.437Z,11.03
2019-04-11T13:42:48.036Z,10.22
2019-04-11T13:48:09.439Z,11.35
2019-04-11T13:53:30.841Z,10.01
2019-04-11T13:58:36.003Z,10.61
2019-04-11T14:03:57.634Z,10.50
2019-04-11T14:09:08.739Z,9.08
2019-04-11T14:14:13.911Z,10.01
2019-04-11T14:19:34.086Z,10.27
2019-04-11T14:24:48.260Z,10.06
2019-04-11T14:29:53.392Z,10.37
2019-04-11T14:35:10.613Z,9.80
2019-04-11T14:40:15.850Z,9.82
2019-04-11T14:45:37.268Z,10.39
2019-04-11T14:51:00.649Z,9.77
2019-04-11T14:56:06.372Z,9.85
2019-04-11T15:01:11.514Z,9.43
2019-04-11T15:06:19.695Z,9.18
2019-04-11T15:11:24.835Z,9.54
2019-04-11T15:16:46.659Z,9.22
2019-04-11T15:21:51.800Z,9.76
2019-04-11T15:26:56.957Z,9.21
2019-04-11T15:32:14.387Z,9.71
2019-04-11T15:37:19.519Z,8.64
2019-04-11T15:42:24.702Z,8.83
2019-04-11T15:47:29.970Z,8.28
2019-04-11T15:52:34.725Z,8.01
2019-04-11T15:57:42.901Z,8.24
2019-04-11T16:02:47.980Z,8.33
2019-04-11T16:07:55.958Z,7.82
2019-04-11T16:13:16.177Z,8.31
2019-04-11T16:18:37.321Z,8.84
2019-04-11T16:23:42.440Z,8.59
2019-04-11T16:28:50.637Z,8.60
2019-04-11T16:34:07.734Z,8.60
2019-04-11T16:39:12.877Z,8.28
2019-04-11T16:44:25.138Z,8.10
2019-04-11T16:49:29.287Z,7.93
2019-04-11T16:54:32.849Z,8.30
2019-04-11T16:59:36.920Z,8.34
2019-04-11T17:04:40.487Z,8.20
2019-04-11T17:09:45.661Z,8.28
2019-04-11T17:14:49.211Z,8.01
2019-04-11T17:19:52.797Z,7.59
2019-04-11T17:24:56.387Z,8.08
2019-04-11T17:30:00.064Z,7.86
2019-04-11T17:35:04.025Z,7.67
2019-04-11T17:40:07.769Z,7.54
2019-04-11T17:45:11.351Z,7.58
2019-04-11T17:50:14.999Z,7.05
2019-04-11T17:55:18.629Z,7.15
2019-04-11T18:00:29.715Z,7.58
2019-04-11T18:05:32.158Z,7.43
2019-04-11T18:10:35.756Z,7.28
2019-04-11T18:15:39.339Z,7.35
2019-04-11T18:20:42.967Z,7.22
2019-04-11T18:25:46.572Z,7.12
2019-04-11T18:30:53.757Z,6.98
2019-04-11T18:35:55.622Z,7.25
2019-04-11T18:40:59.239Z,7.00
2019-04-11T18:46:02.794Z,6.92
2019-04-11T18:51:06.386Z,6.92
2019-04-11T18:56:09.954Z,6.85
2019-04-11T19:01:13.667Z,6.74
2019-04-11T19:06:27.457Z,6.79
2019-04-11T19:11:22.736Z,6.52
2019-04-11T19:16:26.338Z,6.44
2019-04-11T19:21:29.931Z,6.59
2019-04-11T19:26:33.551Z,6.71
2019-04-11T19:31:37.153Z,6.56
2019-04-11T19:36:42.487Z,6.41
2019-04-11T19:41:48.025Z,6.44
2019-04-11T19:46:51.752Z,6.43
2019-04-11T19:51:55.440Z,6.12
2019-04-11T19:57:03.569Z,6.38
2019-04-11T20:02:07.179Z,6.11
2019-04-11T20:07:10.954Z,6.14
2019-04-11T20:12:14.939Z,6.12
2019-04-11T20:17:19.352Z,6.55
2019-04-11T20:22:24.029Z,5.68
2019-04-11T20:27:27.626Z,6.32
2019-04-11T20:32:33.141Z,6.25
2019-04-11T20:37:39.503Z,6.38
2019-04-11T20:42:41.880Z,6.23
2019-04-11T20:47:45.560Z,6.33
2019-04-11T20:52:49.141Z,6.38
2019-04-11T20:57:52.744Z,6.28
2019-04-11T21:02:58.398Z,6.04
2019-04-11T21:08:03.977Z,6.14
2019-04-11T21:13:07.812Z,6.09
2019-04-11T21:18:11.671Z,6.32
2019-04-11T21:23:24.082Z,6.23
2019-04-11T21:28:20.524Z,5.90
2019-04-11T21:33:24.154Z,5.75
2019-04-11T21:38:28.063Z,5.93
2019-04-11T21:43:35.889Z,5.93
2019-04-11T21:48:38.615Z,5.81
2019-04-11T21:53:45.162Z,5.95
2019-04-11T21:58:50.157Z,5.95
2019-04-11T22:03:57.052Z,5.92
2019-04-11T22:08:59.037Z,5.89
2019-04-11T22:14:02.709Z,5.45
2019-04-11T22:19:06.316Z,5.76
2019-04-11T22:24:09.873Z,6.14
2019-04-11T22:29:13.996Z,5.95
2019-04-11T22:34:21.464Z,5.75
2019-04-11T22:39:24.445Z,5.79
2019-04-11T22:44:28.038Z,5.99
2019-04-11T22:49:31.634Z,5.79
2019-04-11T22:54:35.185Z,5.50
2019-04-11T22:59:38.803Z,5.40
2019-04-11T23:04:42.426Z,4.87
2019-04-11T23:09:48.540Z,5.20
2019-04-11T23:14:51.315Z,5.14
2019-04-11T23:19:54.927Z,4.95
2019-04-11T23:24:58.497Z,4.80
2019-04-11T23:30:02.168Z,5.26
2019-04-11T23:35:06.176Z,5.26
2019-04-11T23:40:09.734Z,5.50
2019-04-11T23:45:13.821Z,5.27
2019-04-11T23:50:17.361Z,5.35
2019-04-11T23:55:21.128Z,5.18
